createdAt,value
2018-05-23T00:00:05.552Z,17.60
2018-05-23T00:03:09.815Z,17.50
2018-05-23T00:06:12.408Z,17.50
2018-05-23T00:09:15.007Z,17.50
2018-05-23T00:12:17.626Z,17.50
2018-05-23T00:15:20.227Z,17.50
2018-05-23T00:18:22.824Z,17.40
2018-05-23T00:21:25.437Z,17.40
2018-05-23T00:24:28.303Z,17.40
2018-05-23T00:27:30.908Z,17.40
2018-05-23T00:30:33.488Z,17.40
2018-05-23T00:33:36.146Z,17.30
2018-05-23T00:36:38.903Z,17.30
2018-05-23T00:39:41.498Z,17.30
2018-05-23T00:42:44.079Z,17.20
2018-05-23T00:45:47.422Z,17.10
2018-05-23T00:48:50.000Z,17.10
2018-05-23T00:51:52.579Z,17.10
2018-05-23T00:55:07.223Z,17.20
2018-05-23T00:58:09.824Z,17.10
2018-05-23T01:01:12.451Z,17.10
2018-05-23T01:04:15.165Z,17.10
2018-05-23T01:07:17.956Z,17.10
2018-05-23T01:10:20.565Z,17.00
2018-05-23T01:13:23.139Z,17.00
2018-05-23T01:16:25.898Z,17.00
2018-05-23T01:19:29.243Z,17.00
2018-05-23T01:22:31.842Z,17.00
2018-05-23T01:25:34.415Z,16.90
2018-05-23T01:28:37.094Z,16.90
2018-05-23T01:31:40.266Z,16.90
2018-05-23T01:34:42.857Z,16.90
2018-05-23T01:37:45.454Z,16.90
2018-05-23T01:40:48.088Z,16.80
2018-05-23T01:43:50.703Z,16.80
2018-05-23T01:46:53.468Z,16.70
2018-05-23T01:49:56.098Z,16.70
2018-05-23T01:53:00.205Z,16.60
2018-05-23T01:56:02.814Z,16.60
2018-05-23T01:59:05.409Z,16.60
2018-05-23T02:02:08.010Z,16.60
2018-05-23T02:05:10.591Z,16.50
2018-05-23T02:08:13.222Z,16.60
2018-05-23T02:11:16.775Z,16.60
2018-05-23T02:14:19.639Z,16.60
2018-05-23T02:17:22.208Z,16.50
2018-05-23T02:20:25.111Z,16.50
2018-05-23T02:23:29.196Z,16.60
2018-05-23T02:26:31.791Z,16.50
2018-05-23T02:29:34.401Z,16.50
2018-05-23T02:32:37.795Z,16.40
2018-05-23T02:35:40.384Z,16.40
2018-05-23T02:38:43.720Z,16.30
2018-05-23T02:41:46.485Z,16.30
2018-05-23T02:44:49.065Z,16.30
2018-05-23T02:47:51.671Z,16.30
2018-05-23T02:50:54.250Z,16.30
2018-05-23T02:53:56.843Z,16.20
2018-05-23T02:56:59.441Z,16.20
2018-05-23T03:00:02.045Z,16.20
2018-05-23T03:03:04.708Z,16.20
2018-05-23T03:06:07.263Z,16.10
2018-05-23T03:09:09.869Z,16.20
2018-05-23T03:12:12.506Z,16.20
2018-05-23T03:15:15.079Z,16.20
2018-05-23T03:18:18.419Z,16.10
2018-05-23T03:21:21.163Z,16.10
2018-05-23T03:24:23.764Z,16.10
2018-05-23T03:27:26.368Z,16.20
2018-05-23T03:30:28.968Z,16.10
2018-05-23T03:33:31.578Z,16.10
2018-05-23T03:36:34.979Z,16.20
2018-05-23T03:39:37.593Z,16.20
2018-05-23T03:42:40.184Z,16.10
2018-05-23T03:45:42.805Z,16.20
2018-05-23T03:48:45.407Z,16.10
2018-05-23T03:51:48.767Z,16.10
2018-05-23T03:54:51.353Z,16.10
2018-05-23T03:57:53.961Z,16.20
2018-05-23T04:01:08.178Z,16.20
2018-05-23T04:07:47.487Z,16.30
2018-05-23T04:10:50.099Z,16.30
2018-05-23T04:13:52.691Z,16.40
2018-05-23T04:16:55.288Z,16.50
2018-05-23T04:19:58.229Z,16.60
2018-05-23T04:23:00.818Z,16.60
2018-05-23T04:26:03.510Z,16.70
2018-05-23T04:29:06.171Z,16.80
2018-05-23T04:32:09.599Z,17.10
2018-05-23T04:35:12.226Z,17.10
2018-05-23T04:38:14.804Z,17.10
2018-05-23T04:41:17.386Z,17.20
2018-05-23T04:44:19.987Z,17.30
2018-05-23T04:47:22.590Z,17.40
2018-05-23T04:50:25.200Z,17.50
2018-05-23T04:53:28.412Z,17.70
2018-05-23T04:56:31.001Z,17.80
2018-05-23T04:59:33.712Z,18.00
2018-05-23T05:02:38.114Z,18.10
2018-05-23T05:05:40.932Z,18.10
2018-05-23T05:08:45.025Z,18.20
2018-05-23T05:11:47.634Z,18.20
2018-05-23T05:14:50.223Z,18.10
2018-05-23T05:17:52.858Z,18.10
2018-05-23T05:20:55.483Z,18.20
2018-05-23T05:23:58.880Z,18.50
2018-05-23T05:27:02.330Z,18.50
2018-05-23T05:30:04.915Z,18.80
2018-05-23T05:33:07.547Z,19.00
2018-05-23T05:36:10.262Z,19.10
2018-05-23T05:39:12.894Z,19.30
2018-05-23T05:42:15.523Z,19.40
2018-05-23T05:45:18.115Z,19.50
2018-05-23T05:48:20.746Z,19.60
2018-05-23T05:51:24.033Z,19.70
2018-05-23T05:54:26.634Z,19.80
2018-05-23T05:57:29.338Z,19.90
2018-05-23T06:00:32.732Z,20.70
2018-05-23T06:03:35.338Z,20.60
2018-05-23T06:06:37.969Z,21.20
2018-05-23T06:09:40.873Z,21.70
2018-05-23T06:12:43.423Z,22.30
2018-05-23T06:15:46.503Z,23.00
2018-05-23T06:18:49.095Z,23.50
2018-05-23T06:21:51.729Z,23.80
2018-05-23T06:24:54.635Z,24.10
2018-05-23T06:27:57.229Z,24.80
2018-05-23T06:30:59.841Z,25.70
2018-05-23T06:34:02.527Z,26.60
2018-05-23T06:37:05.140Z,27.30
2018-05-23T06:40:07.732Z,27.90
2018-05-23T06:43:11.152Z,28.80
2018-05-23T06:46:13.752Z,28.80
2018-05-23T06:49:16.370Z,29.70
2018-05-23T06:52:19.697Z,31.20
2018-05-23T06:55:23.102Z,31.90
2018-05-23T06:58:26.470Z,31.90
2018-05-23T07:01:29.066Z,32.40
2018-05-23T07:04:31.696Z,32.80
2018-05-23T07:07:34.363Z,33.20
2018-05-23T07:10:37.035Z,33.70
2018-05-23T07:13:40.400Z,35.10
2018-05-23T07:16:44.302Z,35.00
2018-05-23T07:19:46.958Z,35.90
2018-05-23T07:22:49.739Z,36.60
2018-05-23T07:25:52.398Z,37.30
2018-05-23T07:28:54.990Z,37.90
2018-05-23T07:31:57.580Z,38.40
2018-05-23T07:35:00.208Z,38.70
2018-05-23T07:38:02.888Z,39.00
2018-05-23T07:41:05.625Z,39.50
2018-05-23T07:44:08.397Z,40.50
2018-05-23T07:47:12.759Z,41.60
2018-05-23T07:50:16.752Z,41.50
2018-05-23T07:53:19.778Z,41.80
2018-05-23T07:56:22.367Z,40.30
2018-05-23T07:59:24.963Z,39.40
2018-05-23T08:02:29.086Z,38.10
2018-05-23T08:05:31.679Z,38.10
2018-05-23T08:08:35.038Z,36.00
2018-05-23T08:11:37.637Z,35.90
2018-05-23T08:14:41.027Z,34.30
2018-05-23T08:17:43.600Z,34.20
2018-05-23T08:20:46.798Z,33.80
2018-05-23T08:23:49.417Z,33.10
2018-05-23T08:26:52.793Z,31.90
2018-05-23T08:29:55.354Z,31.80
2018-05-23T08:32:58.127Z,31.40
2018-05-23T08:36:00.743Z,31.00
2018-05-23T08:39:03.437Z,30.70
2018-05-23T08:42:06.028Z,30.60
2018-05-23T08:45:08.654Z,30.40
2018-05-23T08:48:11.646Z,30.00
2018-05-23T08:51:14.460Z,29.50
2018-05-23T08:54:17.083Z,29.40
2018-05-23T08:57:20.512Z,28.80
2018-05-23T09:00:23.126Z,28.70
2018-05-23T09:03:25.743Z,28.80
2018-05-23T09:06:29.109Z,28.50
2018-05-23T09:09:31.701Z,28.40
2018-05-23T09:12:34.281Z,28.20
2018-05-23T09:15:37.011Z,27.70
2018-05-23T09:18:39.618Z,27.70
2018-05-23T09:21:42.200Z,28.00
2018-05-23T09:24:44.835Z,27.80
2018-05-23T09:27:47.413Z,27.90
2018-05-23T09:30:50.014Z,28.00
2018-05-23T09:33:52.817Z,28.00
2018-05-23T09:36:55.704Z,28.10
2018-05-23T09:39:58.293Z,28.30
2018-05-23T09:43:00.884Z,28.70
2018-05-23T09:46:03.456Z,28.90
2018-05-23T09:49:06.060Z,28.70
2018-05-23T09:52:08.706Z,28.40
2018-05-23T09:55:11.343Z,28.50
2018-05-23T09:58:13.949Z,28.70
2018-05-23T10:01:16.580Z,28.90
2018-05-23T10:04:19.169Z,29.00
2018-05-23T10:07:21.970Z,29.00
2018-05-23T10:10:24.636Z,28.70
2018-05-23T10:13:27.254Z,28.10
2018-05-23T10:16:30.115Z,28.00
2018-05-23T10:19:32.706Z,28.00
2018-05-23T10:22:35.317Z,28.00
2018-05-23T10:25:37.937Z,28.20
2018-05-23T10:28:40.532Z,28.10
2018-05-23T10:31:43.112Z,27.70
2018-05-23T10:34:45.707Z,27.50
2018-05-23T10:37:48.313Z,28.00
2018-05-23T10:40:50.905Z,28.10
2018-05-23T10:43:53.491Z,28.40
2018-05-23T10:46:56.304Z,28.90
2018-05-23T10:49:58.873Z,29.00
2018-05-23T10:53:02.383Z,28.80
2018-05-23T10:56:05.064Z,28.80
2018-05-23T10:59:08.414Z,28.50
2018-05-23T11:02:11.158Z,28.40
2018-05-23T11:05:13.738Z,28.70
2018-05-23T11:08:16.350Z,28.70
2018-05-23T11:11:18.983Z,28.70
2018-05-23T11:14:21.564Z,28.90
2018-05-23T11:17:25.791Z,29.00
2018-05-23T11:20:28.431Z,28.90
2018-05-23T11:23:30.999Z,29.10
2018-05-23T11:26:33.603Z,29.20
2018-05-23T11:29:36.534Z,29.60
2018-05-23T11:32:39.362Z,29.60
2018-05-23T11:35:41.980Z,29.50
2018-05-23T11:38:44.578Z,29.30
2018-05-23T11:41:48.089Z,29.30
2018-05-23T11:44:50.662Z,29.00
2018-05-23T11:47:54.852Z,28.90
2018-05-23T11:50:58.979Z,29.10
2018-05-23T11:54:03.074Z,29.60
2018-05-23T11:57:05.664Z,29.60
2018-05-23T12:00:08.305Z,29.70
2018-05-23T12:03:10.951Z,29.90
2018-05-23T12:06:13.535Z,29.90
2018-05-23T12:09:16.900Z,30.20
2018-05-23T12:12:19.490Z,30.20
2018-05-23T12:15:22.104Z,30.10
2018-05-23T12:18:24.675Z,29.60
2018-05-23T12:21:27.269Z,29.10
2018-05-23T12:24:29.864Z,28.80
2018-05-23T12:27:32.475Z,28.60
2018-05-23T12:30:35.228Z,28.60
2018-05-23T12:33:38.621Z,28.70
2018-05-23T12:36:41.239Z,28.70
2018-05-23T12:39:44.005Z,28.70
2018-05-23T12:42:46.564Z,28.60
2018-05-23T12:45:49.938Z,28.40
2018-05-23T12:48:54.048Z,28.40
2018-05-23T12:51:56.672Z,28.40
2018-05-23T12:55:00.043Z,28.00
2018-05-23T12:58:02.645Z,28.00
2018-05-23T13:01:06.175Z,28.30
2018-05-23T13:04:08.789Z,28.30
2018-05-23T13:07:11.542Z,28.60
2018-05-23T13:10:14.327Z,28.50
2018-05-23T13:13:16.926Z,28.60
2018-05-23T13:16:19.520Z,28.60
2018-05-23T13:19:22.081Z,28.50
2018-05-23T13:22:24.671Z,28.60
2018-05-23T13:25:27.261Z,28.40
2018-05-23T13:28:30.150Z,28.50
2018-05-23T13:31:33.732Z,28.40
2018-05-23T13:34:36.340Z,28.60
2018-05-23T13:37:38.959Z,28.70
2018-05-23T13:40:42.510Z,29.10
2018-05-23T13:43:45.093Z,29.10
2018-05-23T13:46:49.407Z,29.30
2018-05-23T13:49:52.004Z,29.00
2018-05-23T13:52:54.832Z,28.90
2018-05-23T13:55:58.291Z,29.10
2018-05-23T13:59:00.897Z,29.10
2018-05-23T14:02:03.523Z,29.10
2018-05-23T14:05:06.946Z,29.00
2018-05-23T14:08:09.633Z,29.00
2018-05-23T14:11:12.266Z,28.90
2018-05-23T14:14:14.837Z,29.00
2018-05-23T14:17:17.575Z,29.10
2018-05-23T14:20:20.187Z,28.90
2018-05-23T14:23:22.772Z,28.90
2018-05-23T14:26:25.430Z,28.90
2018-05-23T14:29:28.032Z,28.80
2018-05-23T14:32:30.840Z,28.70
2018-05-23T14:35:33.467Z,28.60
2018-05-23T14:38:36.802Z,28.20
2018-05-23T14:41:39.634Z,28.10
2018-05-23T14:44:42.207Z,27.90
2018-05-23T14:47:44.807Z,27.80
2018-05-23T14:50:48.187Z,27.90
2018-05-23T14:53:50.959Z,27.90
2018-05-23T14:56:53.627Z,28.00
2018-05-23T14:59:56.276Z,28.20
2018-05-23T15:02:58.877Z,28.40
2018-05-23T15:06:01.514Z,28.60
2018-05-23T15:09:05.847Z,28.80
2018-05-23T15:12:09.211Z,28.80
2018-05-23T15:15:12.051Z,28.80
2018-05-23T15:18:14.685Z,28.70
2018-05-23T15:21:17.290Z,28.60
2018-05-23T15:24:21.230Z,28.60
2018-05-23T15:27:24.710Z,28.60
2018-05-23T15:30:28.085Z,28.30
2018-05-23T15:33:31.426Z,28.30
2018-05-23T15:36:34.013Z,28.20
2018-05-23T15:39:36.615Z,27.90
2018-05-23T15:42:39.249Z,27.80
2018-05-23T15:45:41.964Z,27.50
2018-05-23T15:48:44.582Z,27.20
2018-05-23T15:51:47.333Z,26.80
2018-05-23T15:54:49.912Z,26.50
2018-05-23T15:57:52.511Z,26.20
2018-05-23T16:00:55.172Z,25.60
2018-05-23T16:03:57.861Z,24.70
2018-05-23T16:07:00.437Z,24.10
2018-05-23T16:10:03.066Z,23.70
2018-05-23T16:13:05.637Z,23.80
2018-05-23T16:16:08.266Z,23.90
2018-05-23T16:19:11.598Z,24.20
2018-05-23T16:22:14.379Z,24.20
2018-05-23T16:25:17.164Z,24.40
2018-05-23T16:28:20.518Z,24.40
2018-05-23T16:31:26.431Z,24.50
2018-05-23T16:34:29.127Z,24.50
2018-05-23T16:37:31.735Z,24.50
2018-05-23T16:40:34.391Z,24.50
2018-05-23T16:43:37.055Z,24.40
2018-05-23T16:46:39.742Z,24.50
2018-05-23T16:49:42.345Z,24.60
2018-05-23T16:52:45.531Z,24.60
2018-05-23T16:55:48.173Z,24.60
2018-05-23T16:58:50.778Z,24.70
2018-05-23T17:01:53.427Z,24.80
2018-05-23T17:04:56.047Z,24.80
2018-05-23T17:07:58.672Z,25.00
2018-05-23T17:11:01.318Z,25.00
2018-05-23T17:14:04.047Z,25.00
2018-05-23T17:17:10.674Z,25.00
2018-05-23T17:20:13.311Z,25.00
2018-05-23T17:23:16.042Z,24.80
2018-05-23T17:26:18.627Z,24.70
2018-05-23T17:29:21.224Z,24.60
2018-05-23T17:32:23.835Z,24.60
2018-05-23T17:35:26.506Z,24.50
2018-05-23T17:38:29.346Z,24.50
2018-05-23T17:41:32.848Z,24.30
2018-05-23T17:44:36.321Z,24.30
2018-05-23T17:47:38.885Z,24.30
2018-05-23T17:50:41.481Z,24.30
2018-05-23T17:53:44.049Z,24.20
2018-05-23T17:56:47.758Z,24.10
2018-05-23T17:59:50.504Z,24.00
2018-05-23T18:02:53.709Z,23.90
2018-05-23T18:05:56.357Z,23.80
2018-05-23T18:08:59.739Z,23.50
2018-05-23T18:12:02.450Z,23.40
2018-05-23T18:15:04.997Z,23.30
2018-05-23T18:18:08.760Z,23.20
2018-05-23T18:21:15.189Z,23.10
2018-05-23T18:24:18.731Z,23.00
2018-05-23T18:27:21.542Z,23.00
2018-05-23T18:30:24.301Z,22.90
2018-05-23T18:33:27.116Z,22.90
2018-05-23T18:36:29.770Z,22.80
2018-05-23T18:39:32.605Z,22.80
2018-05-23T18:42:36.478Z,22.80
2018-05-23T18:45:39.093Z,22.80
2018-05-23T18:48:41.715Z,22.70
2018-05-23T18:51:45.779Z,22.70
2018-05-23T18:54:48.541Z,22.60
2018-05-23T18:57:51.162Z,22.60
2018-05-23T19:00:53.755Z,22.50
2018-05-23T19:03:56.503Z,22.50
2018-05-23T19:06:59.270Z,22.50
2018-05-23T19:10:02.679Z,22.40
2018-05-23T19:13:05.282Z,22.40
2018-05-23T19:16:07.936Z,22.40
2018-05-23T19:19:10.576Z,22.30
2018-05-23T19:22:13.296Z,22.30
2018-05-23T19:25:16.872Z,22.20
2018-05-23T19:28:19.498Z,22.20
2018-05-23T19:31:22.082Z,22.20
2018-05-23T19:34:24.721Z,22.20
2018-05-23T19:37:27.323Z,22.10
2018-05-23T19:40:30.700Z,22.00
2018-05-23T19:43:33.521Z,22.10
2018-05-23T19:46:36.134Z,22.00
2018-05-23T19:49:39.722Z,21.90
2018-05-23T19:52:48.110Z,21.90
2018-05-23T19:55:51.430Z,21.90
2018-05-23T19:58:54.357Z,21.80
2018-05-23T20:01:56.994Z,21.80
2018-05-23T20:04:59.598Z,21.80
2018-05-23T20:08:02.305Z,21.70
2018-05-23T20:11:06.152Z,21.70
2018-05-23T20:14:09.642Z,21.60
2018-05-23T20:17:12.249Z,21.60
2018-05-23T20:20:15.636Z,21.50
2018-05-23T20:23:19.791Z,21.50
2018-05-23T20:26:22.458Z,21.50
2018-05-23T20:29:25.070Z,21.40
2018-05-23T20:32:27.761Z,21.40
2018-05-23T20:35:30.460Z,21.40
2018-05-23T20:38:33.008Z,21.30
2018-05-23T20:41:35.625Z,21.30
2018-05-23T20:44:38.214Z,21.30
2018-05-23T20:47:40.905Z,21.30
2018-05-23T20:50:43.468Z,21.30
2018-05-23T20:53:46.075Z,21.30
2018-05-23T20:56:48.675Z,21.20
2018-05-23T20:59:52.184Z,21.20
2018-05-23T21:02:55.627Z,21.20
2018-05-23T21:05:58.597Z,21.20
2018-05-23T21:09:01.282Z,21.10
2018-05-23T21:12:03.948Z,21.10
2018-05-23T21:15:06.534Z,21.10
2018-05-23T21:18:10.114Z,21.10
2018-05-23T21:21:12.765Z,21.10
2018-05-23T21:24:15.357Z,21.10
2018-05-23T21:27:18.097Z,21.10
2018-05-23T21:30:20.732Z,21.10
2018-05-23T21:33:23.570Z,21.10
2018-05-23T21:36:26.223Z,21.10
2018-05-23T21:39:28.858Z,21.10
2018-05-23T21:42:31.504Z,21.00
2018-05-23T21:45:34.900Z,20.90
2018-05-23T21:48:37.513Z,20.90
2018-05-23T21:51:40.174Z,20.90
2018-05-23T21:54:43.521Z,20.80
2018-05-23T21:57:46.152Z,20.80
2018-05-23T22:00:49.711Z,20.80
2018-05-23T22:03:52.562Z,20.80
2018-05-23T22:06:55.170Z,20.70
2018-05-23T22:09:57.767Z,20.60
2018-05-23T22:13:00.366Z,20.60
2018-05-23T22:16:03.003Z,20.60
2018-05-23T22:19:05.672Z,20.60
2018-05-23T22:22:08.469Z,20.60
2018-05-23T22:25:11.062Z,20.60
2018-05-23T22:28:13.891Z,20.60
2018-05-23T22:31:16.474Z,20.60
2018-05-23T22:34:19.157Z,20.60
2018-05-23T22:37:22.507Z,20.60
2018-05-23T22:40:25.156Z,20.60
2018-05-23T22:43:28.526Z,20.60
2018-05-23T22:46:31.169Z,20.50
2018-05-23T22:49:33.839Z,20.50
2018-05-23T22:52:36.432Z,20.50
2018-05-23T22:55:39.067Z,20.50
2018-05-23T22:58:43.208Z,20.50
2018-05-23T23:01:45.838Z,20.40
2018-05-23T23:04:48.451Z,20.50
2018-05-23T23:07:51.033Z,20.40
2018-05-23T23:10:53.692Z,20.50
2018-05-23T23:13:56.275Z,20.50
2018-05-23T23:16:58.863Z,20.40
2018-05-23T23:20:01.462Z,20.40
2018-05-23T23:23:04.300Z,20.30
2018-05-23T23:26:06.891Z,20.20
2018-05-23T23:29:09.524Z,20.20
2018-05-23T23:32:12.158Z,20.10
2018-05-23T23:35:14.793Z,20.10
2018-05-23T23:38:17.401Z,20.10
2018-05-23T23:41:20.020Z,20.00
2018-05-23T23:44:29.520Z,20.00
2018-05-23T23:47:32.152Z,20.00
2018-05-23T23:50:34.731Z,19.90
2018-05-23T23:53:37.331Z,19.90
2018-05-23T23:56:39.953Z,20.00
2018-05-23T23:59:42.531Z,20.00
